createdAt,value
2019-04-29T00:01:43.585Z,9.97
2019-04-29T00:04:13.889Z,8.68
2019-04-29T00:06:44.326Z,9.50
2019-04-29T00:09:18.261Z,9.17
2019-04-29T00:11:48.956Z,9.43
2019-04-29T00:14:19.291Z,7.20
2019-04-29T00:17:01.236Z,7.83
2019-04-29T00:19:53.607Z,10.67
2019-04-29T00:22:23.898Z,8.80
2019-04-29T00:24:54.477Z,9.90
2019-04-29T00:27:27.913Z,10.30
2019-04-29T00:30:00.772Z,11.20
2019-04-29T00:32:33.265Z,8.70
2019-04-29T00:35:03.766Z,11.33
2019-04-29T00:37:52.028Z,8.23
2019-04-29T00:40:40.132Z,8.85
2019-04-29T00:43:34.623Z,9.83
2019-04-29T00:46:06.306Z,9.03
2019-04-29T00:48:36.806Z,8.53
2019-04-29T00:51:07.595Z,9.57
2019-04-29T00:53:40.796Z,7.67
2019-04-29T00:56:11.147Z,10.58
2019-04-29T00:58:42.042Z,9.00
2019-04-29T01:01:19.082Z,8.38
2019-04-29T01:03:49.508Z,10.07
2019-04-29T01:06:20.023Z,10.45
2019-04-29T01:08:50.564Z,10.77
2019-04-29T01:11:20.965Z,10.90
2019-04-29T01:13:51.277Z,11.00
2019-04-29T01:16:21.647Z,12.83
2019-04-29T01:18:51.999Z,10.80
2019-04-29T01:21:24.157Z,9.55
2019-04-29T01:23:55.984Z,11.80
2019-04-29T01:26:43.898Z,10.57
2019-04-29T01:29:15.507Z,9.73
2019-04-29T01:31:45.781Z,9.67
2019-04-29T01:34:21.110Z,9.63
2019-04-29T01:36:51.543Z,8.80
2019-04-29T01:39:35.522Z,8.37
2019-04-29T01:42:18.131Z,9.35
2019-04-29T01:44:48.806Z,8.43
2019-04-29T01:47:19.369Z,8.15
2019-04-29T01:49:49.817Z,7.90
2019-04-29T01:52:20.104Z,6.90
2019-04-29T01:55:02.251Z,8.20
2019-04-29T01:57:32.529Z,7.37
2019-04-29T02:00:02.884Z,6.73
2019-04-29T02:02:33.183Z,6.17
2019-04-29T02:05:04.360Z,6.27
2019-04-29T02:07:34.955Z,8.70
2019-04-29T02:10:13.916Z,7.40
2019-04-29T02:12:50.098Z,8.47
2019-04-29T02:15:20.683Z,11.60
2019-04-29T02:17:51.275Z,9.83
2019-04-29T02:20:21.613Z,11.10
2019-04-29T02:23:15.134Z,8.27
2019-04-29T02:25:46.533Z,9.40
2019-04-29T02:28:24.340Z,6.33
2019-04-29T02:30:55.128Z,6.67
2019-04-29T02:33:25.492Z,6.27
2019-04-29T02:35:55.768Z,7.20
2019-04-29T02:38:53.841Z,7.40
2019-04-29T02:41:45.665Z,6.80
2019-04-29T02:44:16.060Z,7.05
2019-04-29T02:46:46.380Z,7.20
2019-04-29T02:49:16.982Z,8.70
2019-04-29T02:51:50.873Z,7.10
2019-04-29T02:54:21.202Z,7.17
2019-04-29T02:57:03.897Z,8.83
2019-04-29T02:59:39.399Z,8.13
2019-04-29T03:02:29.038Z,7.63
2019-04-29T03:05:16.929Z,8.70
2019-04-29T03:07:49.720Z,8.63
2019-04-29T03:10:20.205Z,9.18
2019-04-29T03:12:50.590Z,8.53
2019-04-29T03:15:32.187Z,6.60
2019-04-29T03:18:02.881Z,7.10
2019-04-29T03:20:52.345Z,7.23
2019-04-29T03:23:25.658Z,9.28
2019-04-29T03:25:56.260Z,7.03
2019-04-29T03:28:35.697Z,8.60
2019-04-29T03:31:07.291Z,8.35
2019-04-29T03:33:37.695Z,8.60
2019-04-29T03:36:08.291Z,9.37
2019-04-29T03:38:38.853Z,8.27
2019-04-29T03:41:18.894Z,10.00
2019-04-29T03:43:50.883Z,9.40
2019-04-29T03:46:21.395Z,11.93
2019-04-29T03:48:51.919Z,11.97
2019-04-29T03:51:22.459Z,11.47
2019-04-29T03:53:53.539Z,13.03
2019-04-29T03:56:24.198Z,13.15
2019-04-29T03:58:54.941Z,10.60
2019-04-29T04:01:30.942Z,11.87
2019-04-29T04:04:08.411Z,13.37
2019-04-29T04:06:44.436Z,9.20
2019-04-29T04:09:31.724Z,11.23
2019-04-29T04:12:04.122Z,10.15
2019-04-29T04:14:44.006Z,13.20
2019-04-29T04:17:29.491Z,14.37
2019-04-29T04:19:59.939Z,13.37
2019-04-29T04:22:32.183Z,18.93
2019-04-29T04:25:02.695Z,17.50
2019-04-29T04:27:33.382Z,16.87
2019-04-29T04:30:04.264Z,16.57
2019-04-29T04:32:34.761Z,17.67
2019-04-29T04:35:05.277Z,20.70
2019-04-29T04:37:35.718Z,17.37
2019-04-29T04:40:08.665Z,18.95
2019-04-29T04:42:38.998Z,15.93
2019-04-29T04:45:11.273Z,14.97
2019-04-29T04:47:41.600Z,8.80
2019-04-29T04:50:12.444Z,11.35
2019-04-29T04:52:42.903Z,10.17
2019-04-29T04:55:25.308Z,13.33
2019-04-29T04:57:55.821Z,13.77
2019-04-29T05:00:28.047Z,15.57
2019-04-29T05:02:58.449Z,19.50
2019-04-29T05:05:28.928Z,16.13
2019-04-29T05:07:59.219Z,13.07
2019-04-29T05:10:29.760Z,13.37
2019-04-29T05:13:00.109Z,13.90
2019-04-29T05:15:37.126Z,12.60
2019-04-29T05:18:07.583Z,12.37
2019-04-29T05:20:38.003Z,11.50
2019-04-29T05:23:08.458Z,11.37
2019-04-29T05:25:40.433Z,12.03
2019-04-29T05:28:10.883Z,14.83
2019-04-29T05:30:41.299Z,13.77
2019-04-29T05:33:11.789Z,13.93
2019-04-29T05:36:07.087Z,12.90
2019-04-29T05:39:17.254Z,17.17
2019-04-29T05:41:53.520Z,13.87
2019-04-29T05:44:52.948Z,16.45
2019-04-29T05:47:30.711Z,19.15
2019-04-29T05:50:27.281Z,20.10
2019-04-29T05:53:25.676Z,19.20
2019-04-29T05:55:56.287Z,21.43
2019-04-29T05:58:37.638Z,21.70
2019-04-29T06:01:03.154Z,20.30
2019-04-29T06:03:37.960Z,22.00
2019-04-29T06:06:06.994Z,19.43
2019-04-29T06:08:39.303Z,20.13
2019-04-29T06:11:09.556Z,19.30
2019-04-29T06:13:40.136Z,21.50
2019-04-29T06:16:10.602Z,19.57
2019-04-29T06:18:41.684Z,19.70
2019-04-29T06:21:31.049Z,17.43
2019-04-29T06:24:04.499Z,18.53
2019-04-29T06:26:33.719Z,17.17
2019-04-29T06:29:06.010Z,16.27
2019-04-29T06:31:36.677Z,17.93
2019-04-29T06:34:07.489Z,16.93
2019-04-29T06:36:38.450Z,19.67
2019-04-29T06:39:20.676Z,16.53
2019-04-29T06:41:51.350Z,16.73
2019-04-29T06:44:22.163Z,14.63
2019-04-29T06:46:54.587Z,16.23
2019-04-29T06:49:25.579Z,13.57
2019-04-29T06:51:56.827Z,15.53
2019-04-29T06:54:27.491Z,12.00
2019-04-29T06:56:59.543Z,11.20
2019-04-29T06:59:37.546Z,12.33
2019-04-29T07:02:15.757Z,12.50
2019-04-29T07:04:46.561Z,10.57
2019-04-29T07:07:16.972Z,9.80
2019-04-29T07:09:47.388Z,9.70
2019-04-29T07:12:17.970Z,8.90
2019-04-29T07:14:48.672Z,10.83
2019-04-29T07:17:27.031Z,8.95
2019-04-29T07:20:12.726Z,7.80
2019-04-29T07:22:43.365Z,7.20
2019-04-29T07:25:31.333Z,8.15
2019-04-29T07:28:18.432Z,8.93
2019-04-29T07:31:01.059Z,7.63
2019-04-29T07:33:22.629Z,7.62
2019-04-29T07:35:53.396Z,7.43
2019-04-29T07:38:26.259Z,6.50
2019-04-29T07:40:58.308Z,6.20
2019-04-29T07:43:28.777Z,8.10
2019-04-29T07:46:20.764Z,7.00
2019-04-29T07:49:01.326Z,9.50
2019-04-29T07:51:24.180Z,7.70
2019-04-29T07:54:00.476Z,7.63
2019-04-29T07:57:05.654Z,8.30
2019-04-29T07:59:41.217Z,8.27
2019-04-29T08:02:20.636Z,8.18
2019-04-29T08:04:51.333Z,9.27
2019-04-29T08:07:53.626Z,10.70
2019-04-29T08:10:31.101Z,11.15
2019-04-29T08:13:02.229Z,9.10
2019-04-29T08:15:36.717Z,8.83
2019-04-29T08:18:11.316Z,11.03
2019-04-29T08:20:51.342Z,10.97
2019-04-29T08:23:33.126Z,10.63
2019-04-29T08:26:02.638Z,10.90
2019-04-29T08:28:31.819Z,9.60
2019-04-29T08:31:04.958Z,10.93
2019-04-29T08:33:57.885Z,11.37
2019-04-29T08:36:32.541Z,10.80
2019-04-29T08:39:08.767Z,11.17
2019-04-29T08:41:41.707Z,10.57
2019-04-29T08:44:41.356Z,11.60
2019-04-29T08:47:16.762Z,11.88
2019-04-29T08:49:47.148Z,11.27
2019-04-29T08:52:18.229Z,13.13
2019-04-29T08:54:50.696Z,11.30
2019-04-29T08:57:27.036Z,10.83
2019-04-29T08:59:58.079Z,12.67
2019-04-29T09:02:54.014Z,11.47
2019-04-29T09:05:24.401Z,11.27
2019-04-29T09:07:57.421Z,11.90
2019-04-29T09:10:27.311Z,11.35
2019-04-29T09:12:57.996Z,12.45
2019-04-29T09:15:28.440Z,12.60
2019-04-29T09:18:06.989Z,12.60
2019-04-29T09:20:39.658Z,14.50
2019-04-29T09:23:12.790Z,13.43
2019-04-29T09:26:03.273Z,14.27
2019-04-29T09:28:33.871Z,15.13
2019-04-29T09:31:22.612Z,15.97
2019-04-29T09:34:06.017Z,13.95
2019-04-29T09:36:28.650Z,18.23
2019-04-29T09:39:04.370Z,17.40
2019-04-29T09:42:08.159Z,16.90
2019-04-29T09:44:54.003Z,15.87
2019-04-29T09:47:24.688Z,15.47
2019-04-29T09:49:58.097Z,14.63
2019-04-29T09:52:28.673Z,15.40
2019-04-29T09:55:08.828Z,13.70
2019-04-29T09:57:39.551Z,13.17
2019-04-29T10:00:17.696Z,16.47
2019-04-29T10:02:56.817Z,15.50
2019-04-29T10:05:37.347Z,14.93
2019-04-29T10:08:17.702Z,16.63
2019-04-29T10:10:50.041Z,16.37
2019-04-29T10:13:20.713Z,17.60
2019-04-29T10:16:02.591Z,16.67
2019-04-29T10:18:38.083Z,16.40
2019-04-29T10:21:10.738Z,17.57
2019-04-29T10:23:41.208Z,17.87
2019-04-29T10:26:22.082Z,17.87
2019-04-29T10:28:57.100Z,15.87
2019-04-29T10:31:27.753Z,15.90
2019-04-29T10:33:58.436Z,17.97
2019-04-29T10:36:29.296Z,17.07
2019-04-29T10:39:04.948Z,13.83
2019-04-29T10:41:53.893Z,14.67
2019-04-29T10:44:32.786Z,15.23
2019-04-29T10:47:25.722Z,15.33
2019-04-29T10:50:10.555Z,13.40
2019-04-29T10:52:43.513Z,11.63
2019-04-29T10:55:13.550Z,12.93
2019-04-29T10:57:44.942Z,13.83
2019-04-29T11:00:36.276Z,14.03
2019-04-29T11:03:20.684Z,13.90
2019-04-29T11:06:00.627Z,13.20
2019-04-29T11:08:48.992Z,14.80
2019-04-29T11:11:23.336Z,12.90
2019-04-29T11:14:05.664Z,14.40
2019-04-29T11:16:46.136Z,13.43
2019-04-29T11:19:06.003Z,13.90
2019-04-29T11:21:38.873Z,12.60
2019-04-29T11:24:20.453Z,15.97
2019-04-29T11:27:15.928Z,13.38
2019-04-29T11:29:46.495Z,13.87
2019-04-29T11:32:30.433Z,13.60
2019-04-29T11:35:19.937Z,13.33
2019-04-29T11:38:10.328Z,13.10
2019-04-29T11:40:43.720Z,12.80
2019-04-29T11:43:15.526Z,13.80
2019-04-29T11:45:47.108Z,12.67
2019-04-29T11:48:17.749Z,12.37
2019-04-29T11:50:56.886Z,14.15
2019-04-29T11:53:32.277Z,14.03
2019-04-29T11:56:02.697Z,13.90
2019-04-29T11:58:45.434Z,15.30
2019-04-29T12:01:37.915Z,15.00
2019-04-29T12:03:59.099Z,15.40
2019-04-29T12:06:36.926Z,14.77
2019-04-29T12:09:30.342Z,13.03
2019-04-29T12:12:01.475Z,14.20
2019-04-29T12:14:52.712Z,14.00
2019-04-29T12:17:42.284Z,13.48
2019-04-29T12:20:22.843Z,13.97
2019-04-29T12:22:53.232Z,13.23
2019-04-29T12:25:27.390Z,14.73
2019-04-29T12:28:01.488Z,12.67
2019-04-29T12:30:37.967Z,12.10
2019-04-29T12:33:27.377Z,12.23
2019-04-29T12:36:07.523Z,10.20
2019-04-29T12:38:56.084Z,11.00
2019-04-29T12:41:49.103Z,9.67
2019-04-29T12:44:35.447Z,8.63
2019-04-29T12:47:38.224Z,8.10
2019-04-29T12:50:09.469Z,8.53
2019-04-29T12:52:39.934Z,8.33
2019-04-29T12:55:20.114Z,8.20
2019-04-29T12:57:55.200Z,7.67
2019-04-29T13:00:27.531Z,6.65
2019-04-29T13:03:17.785Z,5.73
2019-04-29T13:06:03.395Z,5.83
2019-04-29T13:08:48.010Z,6.17
2019-04-29T13:11:20.786Z,5.53
2019-04-29T13:13:55.477Z,6.60
2019-04-29T13:16:39.569Z,7.17
2019-04-29T13:19:46.112Z,7.55
2019-04-29T13:22:17.186Z,7.70
2019-04-29T13:24:48.286Z,7.63
2019-04-29T13:27:20.779Z,7.90
2019-04-29T13:29:51.225Z,8.93
2019-04-29T13:32:25.331Z,8.38
2019-04-29T13:35:10.634Z,8.43
2019-04-29T13:37:39.775Z,7.90
2019-04-29T13:40:11.295Z,9.57
2019-04-29T13:42:48.545Z,8.10
2019-04-29T13:45:42.798Z,9.30
2019-04-29T13:48:09.772Z,9.33
2019-04-29T13:50:46.945Z,9.93
2019-04-29T13:53:18.619Z,11.20
2019-04-29T13:55:50.104Z,12.37
2019-04-29T13:58:22.245Z,10.90
2019-04-29T14:01:22.117Z,15.50
2019-04-29T14:03:49.472Z,14.63
2019-04-29T14:06:20.173Z,13.08
2019-04-29T14:08:50.502Z,14.23
2019-04-29T14:11:21.890Z,13.73
2019-04-29T14:13:54.077Z,14.13
2019-04-29T14:16:24.586Z,15.40
2019-04-29T14:18:55.214Z,16.83
2019-04-29T14:21:34.165Z,16.63
2019-04-29T14:24:04.700Z,17.93
2019-04-29T14:26:36.881Z,18.93
2019-04-29T14:29:07.612Z,23.27
2019-04-29T14:31:37.992Z,20.73
2019-04-29T14:34:20.646Z,21.30
2019-04-29T14:36:51.335Z,22.07
2019-04-29T14:39:37.046Z,21.27
2019-04-29T14:42:09.401Z,21.10
2019-04-29T14:45:02.677Z,21.63
2019-04-29T14:47:46.670Z,19.90
2019-04-29T14:50:20.982Z,22.15
2019-04-29T14:52:50.650Z,22.73
2019-04-29T14:55:25.393Z,25.63
2019-04-29T14:57:55.082Z,26.80
2019-04-29T15:00:38.318Z,27.93
2019-04-29T15:03:08.929Z,25.70
2019-04-29T15:05:51.024Z,28.00
2019-04-29T15:08:21.652Z,28.43
2019-04-29T15:10:54.404Z,27.53
2019-04-29T15:13:26.072Z,30.23
2019-04-29T15:16:09.659Z,29.87
2019-04-29T15:18:57.831Z,31.37
2019-04-29T15:21:34.718Z,30.73
2019-04-29T15:24:06.881Z,32.33
2019-04-29T15:26:37.446Z,32.83
2019-04-29T15:29:08.437Z,29.57
2019-04-29T15:31:42.423Z,31.40
2019-04-29T15:34:14.459Z,30.48
2019-04-29T15:36:54.518Z,28.90
2019-04-29T15:39:46.202Z,30.70
2019-04-29T15:42:15.128Z,29.15
2019-04-29T15:44:45.558Z,28.70
2019-04-29T15:47:16.344Z,32.65
2019-04-29T15:50:06.652Z,30.83
2019-04-29T15:52:32.948Z,30.47
2019-04-29T15:55:03.490Z,32.60
2019-04-29T15:57:34.439Z,31.40
2019-04-29T16:00:20.577Z,31.87
2019-04-29T16:02:41.508Z,31.70
2019-04-29T16:05:30.624Z,34.87
2019-04-29T16:08:18.563Z,31.60
2019-04-29T16:11:06.400Z,31.77
2019-04-29T16:13:37.302Z,31.53
2019-04-29T16:16:19.805Z,31.70
2019-04-29T16:19:07.124Z,29.93
2019-04-29T16:21:32.163Z,31.50
2019-04-29T16:24:24.352Z,35.67
2019-04-29T16:26:35.140Z,33.20
2019-04-29T16:29:12.426Z,34.30
2019-04-29T16:32:02.317Z,35.40
2019-04-29T16:34:28.639Z,32.83
2019-04-29T16:37:00.682Z,30.93
2019-04-29T16:39:31.768Z,32.03
2019-04-29T16:42:33.718Z,30.03
2019-04-29T16:47:40.098Z,26.07
2019-04-29T16:50:10.685Z,25.33
2019-04-29T16:52:44.578Z,24.50
2019-04-29T16:55:14.307Z,21.13
2019-04-29T16:57:44.766Z,21.20
2019-04-29T17:00:36.864Z,20.00
2019-04-29T17:03:08.425Z,20.57
2019-04-29T17:05:39.093Z,18.63
2019-04-29T17:08:15.164Z,18.60
2019-04-29T17:10:52.419Z,19.85
2019-04-29T17:13:34.884Z,17.47
2019-04-29T17:16:08.188Z,20.65
2019-04-29T17:18:38.703Z,20.70
2019-04-29T17:21:09.175Z,20.10
2019-04-29T17:23:39.823Z,16.77
2019-04-29T17:26:10.577Z,18.93
2019-04-29T17:28:50.937Z,17.90
2019-04-29T17:31:58.019Z,17.03
2019-04-29T17:34:56.722Z,17.53
2019-04-29T17:35:19.354Z,30.00
2019-04-29T17:37:03.943Z,19.77
2019-04-29T17:39:34.391Z,19.93
2019-04-29T17:42:06.085Z,18.47
2019-04-29T17:44:45.811Z,19.13
2019-04-29T17:47:37.724Z,18.73
2019-04-29T17:50:32.532Z,18.73
2019-04-29T17:53:04.411Z,19.80
2019-04-29T17:55:45.287Z,18.17
2019-04-29T17:58:20.103Z,17.17
2019-04-29T18:01:08.246Z,18.97
2019-04-29T18:04:06.706Z,19.40
2019-04-29T18:06:41.629Z,18.20
2019-04-29T18:09:40.556Z,19.55
2019-04-29T18:12:22.522Z,20.83
2019-04-29T18:14:54.942Z,20.03
2019-04-29T18:17:31.306Z,21.40
2019-04-29T18:20:32.178Z,19.23
2019-04-29T18:23:26.892Z,17.10
2019-04-29T18:26:30.631Z,18.67
2019-04-29T18:29:03.447Z,19.70
2019-04-29T18:31:32.438Z,19.17
2019-04-29T18:34:05.607Z,20.30
2019-04-29T18:36:36.110Z,17.07
2019-04-29T18:39:10.209Z,18.17
2019-04-29T18:41:41.105Z,16.20
2019-04-29T18:44:30.790Z,17.98
2019-04-29T18:47:05.489Z,14.00
2019-04-29T18:49:36.302Z,15.07
2019-04-29T18:52:07.822Z,17.62
2019-04-29T18:54:44.988Z,16.23
2019-04-29T18:57:27.649Z,16.03
2019-04-29T18:59:58.909Z,18.70
2019-04-29T19:02:32.640Z,17.40
2019-04-29T19:05:14.928Z,16.97
2019-04-29T19:07:54.655Z,18.63
2019-04-29T19:10:31.637Z,17.92
2019-04-29T19:13:13.096Z,15.77
2019-04-29T19:15:47.351Z,15.87
2019-04-29T19:18:20.923Z,17.27
2019-04-29T19:20:54.194Z,16.70
2019-04-29T19:23:22.828Z,19.90
2019-04-29T19:25:56.624Z,20.20
2019-04-29T19:28:38.237Z,22.30
2019-04-29T19:31:09.817Z,21.90
2019-04-29T19:33:40.720Z,22.83
2019-04-29T19:36:17.421Z,21.55
2019-04-29T19:38:47.232Z,22.97
2019-04-29T19:41:18.169Z,23.35
2019-04-29T19:43:54.961Z,22.03
2019-04-29T19:46:36.883Z,27.87
2019-04-29T19:49:07.503Z,24.03
2019-04-29T19:51:35.094Z,25.07
2019-04-29T19:54:05.936Z,25.90
2019-04-29T19:56:43.409Z,26.13
2019-04-29T19:59:17.156Z,26.85
2019-04-29T20:01:49.669Z,26.37
2019-04-29T20:04:37.905Z,25.07
2019-04-29T20:07:12.084Z,25.57
2019-04-29T20:09:43.822Z,25.47
2019-04-29T20:12:17.488Z,24.90
2019-04-29T20:14:48.040Z,25.40
2019-04-29T20:17:38.022Z,23.37
2019-04-29T20:20:18.044Z,23.27
2019-04-29T20:22:51.248Z,24.67
2019-04-29T20:25:29.672Z,26.70
2019-04-29T20:28:05.452Z,28.50
2019-04-29T20:30:26.526Z,24.50
2019-04-29T20:33:12.665Z,26.97
2019-04-29T20:35:45.470Z,27.63
2019-04-29T20:38:15.723Z,28.13
2019-04-29T20:40:46.997Z,26.43
2019-04-29T20:43:20.679Z,26.42
2019-04-29T20:45:50.378Z,29.20
2019-04-29T20:48:21.022Z,29.12
2019-04-29T20:50:56.496Z,31.63
2019-04-29T20:53:39.687Z,30.57
2019-04-29T20:56:12.360Z,29.23
2019-04-29T20:58:40.029Z,28.13
2019-04-29T21:01:16.494Z,26.07
2019-04-29T21:03:52.109Z,32.63
2019-04-29T21:06:20.098Z,30.15
2019-04-29T21:08:59.154Z,30.73
2019-04-29T21:11:39.208Z,33.03
2019-04-29T21:14:34.117Z,35.90
2019-04-29T21:17:02.247Z,35.43
2019-04-29T21:19:43.302Z,36.53
2019-04-29T21:22:22.296Z,37.27
2019-04-29T21:24:53.804Z,37.53
2019-04-29T21:27:23.522Z,39.08
2019-04-29T21:29:55.411Z,35.80
2019-04-29T21:32:26.186Z,35.07
2019-04-29T21:35:14.508Z,38.47
2019-04-29T21:37:51.667Z,38.38
2019-04-29T21:40:35.145Z,39.92
2019-04-29T21:43:17.759Z,39.87
2019-04-29T21:46:02.663Z,40.60
2019-04-29T21:48:33.123Z,37.45
2019-04-29T21:50:57.016Z,41.80
2019-04-29T21:53:31.660Z,41.23
2019-04-29T21:56:06.320Z,47.90
2019-04-29T21:58:34.638Z,40.67
2019-04-29T22:01:06.062Z,42.57
2019-04-29T22:03:36.535Z,47.77
2019-04-29T22:06:24.760Z,49.47
2019-04-29T22:09:01.206Z,48.50
2019-04-29T22:11:36.161Z,49.17
2019-04-29T22:14:05.599Z,47.03
2019-04-29T22:16:36.672Z,49.57
2019-04-29T22:19:10.442Z,47.07
2019-04-29T22:22:01.678Z,47.53
2019-04-29T22:24:32.125Z,45.00
2019-04-29T22:27:05.356Z,49.23
2019-04-29T22:29:37.411Z,47.00
2019-04-29T22:32:14.470Z,45.33
2019-04-29T22:34:39.310Z,43.53
2019-04-29T22:37:25.520Z,45.87
2019-04-29T22:39:45.396Z,45.37
2019-04-29T22:42:27.740Z,45.83
2019-04-29T22:45:00.750Z,41.83
2019-04-29T22:47:31.369Z,44.30
2019-04-29T22:50:03.116Z,40.00
2019-04-29T22:52:34.851Z,41.43
2019-04-29T22:55:15.553Z,40.25
2019-04-29T22:57:46.939Z,38.42
2019-04-29T23:00:20.377Z,39.53
2019-04-29T23:02:51.199Z,37.90
2019-04-29T23:05:23.614Z,31.60
2019-04-29T23:07:56.973Z,32.90
2019-04-29T23:10:30.492Z,31.33
2019-04-29T23:13:11.100Z,33.13
2019-04-29T23:15:41.620Z,31.00
2019-04-29T23:18:23.892Z,32.80
2019-04-29T23:21:16.358Z,37.97
2019-04-29T23:24:13.304Z,38.07
2019-04-29T23:26:42.386Z,31.63
2019-04-29T23:29:12.571Z,32.50
2019-04-29T23:31:45.990Z,31.77
2019-04-29T23:34:16.578Z,31.15
2019-04-29T23:36:48.989Z,29.07
2019-04-29T23:39:25.156Z,30.30
2019-04-29T23:41:55.781Z,29.63
2019-04-29T23:44:26.500Z,27.87
2019-04-29T23:46:57.274Z,29.73
2019-04-29T23:49:35.452Z,33.87
2019-04-29T23:52:06.776Z,29.10
2019-04-29T23:54:44.158Z,29.07
2019-04-29T23:57:39.451Z,32.47
